sensor_id;sensor_type;location;lat;lon;timestamp;pressure;altitude;pressure_sealevel;temperature;humidity
24620;BME280;12763;55.802;37.404;2022-07-10T01:36:17;98933.50;;;25.36;nan
24620;BME280;12763;55.802;37.404;2022-07-10T01:58:56;98929.31;;;25.25;nan
24620;BME280;12763;55.802;37.404;2022-07-10T02:09:48;98905.72;;;26.33;nan
24620;BME280;12763;55.802;37.404;2022-07-10T02:16:29;98899.06;;;25.08;nan
24620;BME280;12763;55.802;37.404;2022-07-10T02:18:56;98906.19;;;25.06;nan
24620;BME280;12763;55.802;37.404;2022-07-10T02:29:11;98911.75;;;25.37;nan
24620;BME280;12763;55.802;37.404;2022-07-10T02:35:52;98938.94;;;25.16;nan
24620;BME280;12763;55.802;37.404;2022-07-10T02:46:32;98944.34;;;25.51;nan
24620;BME280;12763;55.802;37.404;2022-07-10T02:48:58;98944.47;;;25.38;nan
24620;BME280;12763;55.802;37.404;2022-07-10T02:51:24;98947.59;;;25.36;nan
24620;BME280;12763;55.802;37.404;2022-07-10T02:53:51;98949.59;;;25.36;nan
24620;BME280;12763;55.802;37.404;2022-07-10T03:00:30;98957.81;;;25.54;nan
24620;BME280;12763;55.802;37.404;2022-07-10T03:02:57;98948.47;;;25.45;nan
24620;BME280;12763;55.802;37.404;2022-07-10T03:17:31;98948.22;;;25.16;nan
24620;BME280;12763;55.802;37.404;2022-07-10T03:23:56;98942.16;;;25.40;nan
24620;BME280;12763;55.802;37.404;2022-07-10T03:26:23;98939.94;;;25.20;nan
24620;BME280;12763;55.802;37.404;2022-07-10T03:41:28;98951.03;;;25.16;nan
24620;BME280;12763;55.802;37.404;2022-07-10T03:43:55;98951.09;;;25.42;nan
24620;BME280;12763;55.802;37.404;2022-07-10T03:59:00;98961.78;;;25.53;nan
24620;BME280;12763;55.802;37.404;2022-07-10T04:09:33;98940.63;;;25.25;nan
24620;BME280;12763;55.802;37.404;2022-07-10T04:11:59;98929.69;;;25.32;nan
24620;BME280;12763;55.802;37.404;2022-07-10T04:18:25;98898.25;;;26.28;nan
24620;BME280;12763;55.802;37.404;2022-07-10T04:24:54;98903.63;;;26.67;nan
24620;BME280;12763;55.802;37.404;2022-07-10T13:50:13;98711.06;;;35.32;nan
24620;BME280;12763;55.802;37.404;2022-07-10T13:52:49;98711.84;;;34.64;nan
24620;BME280;12763;55.802;37.404;2022-07-10T14:23:18;98801.59;;;31.99;nan
24620;BME280;12763;55.802;37.404;2022-07-10T14:30:04;98810.03;;;31.73;nan
24620;BME280;12763;55.802;37.404;2022-07-10T14:48:46;99018.97;;;24.80;nan
24620;BME280;12763;55.802;37.404;2022-07-10T15:31:16;98989.03;;;23.60;nan
24620;BME280;12763;55.802;37.404;2022-07-10T15:33:43;98996.53;;;23.86;nan
24620;BME280;12763;55.802;37.404;2022-07-10T15:36:12;98986.91;;;24.45;nan
24620;BME280;12763;55.802;37.404;2022-07-10T15:38:39;98982.41;;;24.75;nan
24620;BME280;12763;55.802;37.404;2022-07-10T15:48:35;98973.22;;;24.92;nan
24620;BME280;12763;55.802;37.404;2022-07-10T15:51:03;98981.00;;;24.86;nan
24620;BME280;12763;55.802;37.404;2022-07-10T15:53:29;98971.16;;;25.15;nan
24620;BME280;12763;55.802;37.404;2022-07-10T15:55:55;98982.34;;;25.45;nan
24620;BME280;12763;55.802;37.404;2022-07-10T15:58:22;98981.25;;;25.63;nan
24620;BME280;12763;55.802;37.404;2022-07-10T16:00:48;98964.31;;;25.89;nan
24620;BME280;12763;55.802;37.404;2022-07-10T16:03:15;98969.78;;;25.77;nan
24620;BME280;12763;55.802;37.404;2022-07-10T16:05:43;98941.38;;;25.82;nan
24620;BME280;12763;55.802;37.404;2022-07-10T16:08:10;98918.03;;;26.37;nan
24620;BME280;12763;55.802;37.404;2022-07-10T16:10:37;98918.53;;;26.85;nan
24620;BME280;12763;55.802;37.404;2022-07-10T16:13:03;98922.00;;;26.91;nan
24620;BME280;12763;55.802;37.404;2022-07-10T16:15:32;98943.56;;;26.66;nan
24620;BME280;12763;55.802;37.404;2022-07-10T16:17:58;98952.47;;;26.30;nan
24620;BME280;12763;55.802;37.404;2022-07-10T16:20:24;98940.66;;;26.11;nan
24620;BME280;12763;55.802;37.404;2022-07-10T16:22:51;98935.22;;;25.97;nan
24620;BME280;12763;55.802;37.404;2022-07-10T16:25:17;98930.50;;;26.10;nan
24620;BME280;12763;55.802;37.404;2022-07-10T16:28:04;98949.53;;;26.18;nan
24620;BME280;12763;55.802;37.404;2022-07-10T16:30:30;98964.81;;;26.17;nan
24620;BME280;12763;55.802;37.404;2022-07-10T16:32:57;98973.97;;;26.14;nan
24620;BME280;12763;55.802;37.404;2022-07-10T16:35:30;98980.09;;;25.82;nan
24620;BME280;12763;55.802;37.404;2022-07-10T16:37:56;98987.56;;;25.69;nan
24620;BME280;12763;55.802;37.404;2022-07-10T16:40:28;98987.22;;;25.53;nan
24620;BME280;12763;55.802;37.404;2022-07-10T16:42:54;98988.16;;;25.40;nan
24620;BME280;12763;55.802;37.404;2022-07-10T16:45:20;98979.03;;;25.43;nan
24620;BME280;12763;55.802;37.404;2022-07-10T16:47:46;98991.22;;;25.61;nan
24620;BME280;12763;55.802;37.404;2022-07-10T16:50:12;99026.66;;;25.28;nan
24620;BME280;12763;55.802;37.404;2022-07-10T16:52:38;99061.72;;;24.96;nan
24620;BME280;12763;55.802;37.404;2022-07-10T16:55:08;99101.22;;;24.29;nan
24620;BME280;12763;55.802;37.404;2022-07-10T16:57:36;99073.03;;;24.29;nan
24620;BME280;12763;55.802;37.404;2022-07-10T17:00:04;99038.53;;;25.07;nan
24620;BME280;12763;55.802;37.404;2022-07-10T17:02:32;99006.88;;;25.28;nan
24620;BME280;12763;55.802;37.404;2022-07-10T17:04:58;98998.28;;;25.41;nan
24620;BME280;12763;55.802;37.404;2022-07-10T17:07:24;98985.47;;;25.35;nan
24620;BME280;12763;55.802;37.404;2022-07-10T17:09:51;98994.25;;;25.25;nan
24620;BME280;12763;55.802;37.404;2022-07-10T17:12:20;98997.44;;;25.32;nan
24620;BME280;12763;55.802;37.404;2022-07-10T17:14:46;99002.28;;;25.40;nan
24620;BME280;12763;55.802;37.404;2022-07-10T17:17:13;99009.84;;;25.71;nan
24620;BME280;12763;55.802;37.404;2022-07-10T17:19:39;99015.34;;;25.76;nan
24620;BME280;12763;55.802;37.404;2022-07-10T17:22:05;99017.34;;;25.84;nan
24620;BME280;12763;55.802;37.404;2022-07-10T17:24:32;99017.69;;;25.82;nan
24620;BME280;12763;55.802;37.404;2022-07-10T17:27:01;99000.03;;;25.59;nan
24620;BME280;12763;55.802;37.404;2022-07-10T17:29:30;98963.91;;;25.39;nan
24620;BME280;12763;55.802;37.404;2022-07-10T17:31:56;98980.84;;;25.39;nan
24620;BME280;12763;55.802;37.404;2022-07-10T17:34:22;98964.78;;;25.83;nan
24620;BME280;12763;55.802;37.404;2022-07-10T17:36:48;98938.88;;;25.81;nan
24620;BME280;12763;55.802;37.404;2022-07-10T17:39:17;98940.50;;;25.99;nan
24620;BME280;12763;55.802;37.404;2022-07-10T17:41:44;98987.91;;;25.76;nan
24620;BME280;12763;55.802;37.404;2022-07-10T17:44:10;98980.41;;;25.72;nan
24620;BME280;12763;55.802;37.404;2022-07-10T17:46:37;98990.81;;;25.45;nan
24620;BME280;12763;55.802;37.404;2022-07-10T17:49:06;99001.69;;;25.69;nan
24620;BME280;12763;55.802;37.404;2022-07-10T17:51:36;98997.72;;;25.96;nan
24620;BME280;12763;55.802;37.404;2022-07-10T17:54:05;98981.94;;;26.20;nan
24620;BME280;12763;55.802;37.404;2022-07-10T17:56:32;98981.75;;;26.00;nan
24620;BME280;12763;55.802;37.404;2022-07-10T17:58:58;98988.72;;;25.94;nan
24620;BME280;12763;55.802;37.404;2022-07-10T18:01:25;98998.03;;;25.94;nan
24620;BME280;12763;55.802;37.404;2022-07-10T18:03:51;98994.03;;;25.69;nan
24620;BME280;12763;55.802;37.404;2022-07-10T18:06:17;99001.34;;;25.53;nan
24620;BME280;12763;55.802;37.404;2022-07-10T18:08:47;99003.91;;;25.33;nan
24620;BME280;12763;55.802;37.404;2022-07-10T18:11:55;98984.22;;;25.10;nan
24620;BME280;12763;55.802;37.404;2022-07-10T18:14:21;98995.88;;;25.09;nan
24620;BME280;12763;55.802;37.404;2022-07-10T18:16:47;99000.88;;;25.12;nan
24620;BME280;12763;55.802;37.404;2022-07-10T18:19:13;99000.94;;;25.29;nan
24620;BME280;12763;55.802;37.404;2022-07-10T18:22:09;99003.91;;;25.33;nan
24620;BME280;12763;55.802;37.404;2022-07-10T18:24:45;98991.78;;;25.41;nan
24620;BME280;12763;55.802;37.404;2022-07-10T18:27:35;99005.56;;;25.34;nan
24620;BME280;12763;55.802;37.404;2022-07-10T18:30:08;99006.28;;;25.00;nan
24620;BME280;12763;55.802;37.404;2022-07-10T18:32:39;99004.44;;;24.95;nan
24620;BME280;12763;55.802;37.404;2022-07-10T18:36:19;98997.00;;;24.77;nan
24620;BME280;12763;55.802;37.404;2022-07-10T18:38:51;98998.19;;;24.76;nan
24620;BME280;12763;55.802;37.404;2022-07-10T18:41:48;98990.31;;;24.65;nan
24620;BME280;12763;55.802;37.404;2022-07-10T18:44:15;98990.31;;;24.65;nan
24620;BME280;12763;55.802;37.404;2022-07-10T18:46:56;98986.03;;;24.67;nan
24620;BME280;12763;55.802;37.404;2022-07-10T18:49:22;98990.94;;;24.84;nan
24620;BME280;12763;55.802;37.404;2022-07-10T18:51:49;98990.34;;;24.95;nan
24620;BME280;12763;55.802;37.404;2022-07-10T18:54:15;98991.59;;;25.20;nan
24620;BME280;12763;55.802;37.404;2022-07-10T18:56:41;98990.94;;;25.23;nan
24620;BME280;12763;55.802;37.404;2022-07-10T18:59:22;98997.22;;;25.20;nan
24620;BME280;12763;55.802;37.404;2022-07-10T19:02:22;99002.19;;;25.15;nan
24620;BME280;12763;55.802;37.404;2022-07-10T19:04:48;98987.81;;;25.42;nan
24620;BME280;12763;55.802;37.404;2022-07-10T19:07:14;98996.09;;;25.30;nan
24620;BME280;12763;55.802;37.404;2022-07-10T19:13:10;98997.72;;;25.22;nan
24620;BME280;12763;55.802;37.404;2022-07-10T19:15:52;98997.13;;;24.94;nan
24620;BME280;12763;55.802;37.404;2022-07-10T19:18:18;98993.34;;;24.68;nan
24620;BME280;12763;55.802;37.404;2022-07-10T19:20:56;98984.50;;;24.61;nan
24620;BME280;12763;55.802;37.404;2022-07-10T19:23:25;98982.75;;;24.74;nan
24620;BME280;12763;55.802;37.404;2022-07-10T19:26:00;98977.94;;;24.74;nan
24620;BME280;12763;55.802;37.404;2022-07-10T19:28:33;98981.38;;;24.63;nan
24620;BME280;12763;55.802;37.404;2022-07-10T19:31:08;98982.28;;;24.80;nan
24620;BME280;12763;55.802;37.404;2022-07-10T19:33:40;98976.44;;;25.07;nan
24620;BME280;12763;55.802;37.404;2022-07-10T19:36:06;98974.34;;;25.30;nan
24620;BME280;12763;55.802;37.404;2022-07-10T19:38:38;98970.19;;;25.28;nan
24620;BME280;12763;55.802;37.404;2022-07-10T19:41:05;98979.69;;;25.40;nan
24620;BME280;12763;55.802;37.404;2022-07-10T19:43:41;98974.00;;;25.23;nan
24620;BME280;12763;55.802;37.404;2022-07-10T19:46:10;98969.22;;;25.32;nan
24620;BME280;12763;55.802;37.404;2022-07-10T19:48:54;98970.88;;;25.42;nan
24620;BME280;12763;55.802;37.404;2022-07-10T19:51:20;98977.91;;;25.53;nan
24620;BME280;12763;55.802;37.404;2022-07-10T19:54:25;98979.81;;;25.27;nan
24620;BME280;12763;55.802;37.404;2022-07-10T19:56:54;98991.81;;;25.32;nan
24620;BME280;12763;55.802;37.404;2022-07-10T19:59:20;99020.28;;;25.13;nan
24620;BME280;12763;55.802;37.404;2022-07-10T20:01:47;99033.19;;;25.45;nan
24620;BME280;12763;55.802;37.404;2022-07-10T20:04:14;99046.38;;;25.58;nan
24620;BME280;12763;55.802;37.404;2022-07-10T20:06:52;99047.75;;;25.30;nan
24620;BME280;12763;55.802;37.404;2022-07-10T20:09:27;99036.66;;;25.42;nan
24620;BME280;12763;55.802;37.404;2022-07-10T20:11:59;99046.56;;;25.62;nan
24620;BME280;12763;55.802;37.404;2022-07-10T20:14:24;99037.97;;;24.97;nan
24620;BME280;12763;55.802;37.404;2022-07-10T20:16:53;99027.72;;;25.01;nan
24620;BME280;12763;55.802;37.404;2022-07-10T20:19:41;99038.84;;;24.75;nan
24620;BME280;12763;55.802;37.404;2022-07-10T20:22:33;99023.88;;;24.75;nan
24620;BME280;12763;55.802;37.404;2022-07-10T20:28:41;99034.00;;;24.98;nan
24620;BME280;12763;55.802;37.404;2022-07-10T20:31:10;99031.63;;;25.31;nan
24620;BME280;12763;55.802;37.404;2022-07-10T20:33:54;99027.28;;;25.25;nan
24620;BME280;12763;55.802;37.404;2022-07-10T20:36:26;99031.31;;;25.24;nan
24620;BME280;12763;55.802;37.404;2022-07-10T20:39:16;99034.69;;;25.43;nan
24620;BME280;12763;55.802;37.404;2022-07-10T20:41:42;99031.81;;;25.34;nan
24620;BME280;12763;55.802;37.404;2022-07-10T20:44:14;99034.44;;;25.22;nan
24620;BME280;12763;55.802;37.404;2022-07-10T20:46:40;99038.44;;;25.21;nan
24620;BME280;12763;55.802;37.404;2022-07-10T20:49:12;99034.28;;;25.27;nan
24620;BME280;12763;55.802;37.404;2022-07-10T20:51:40;99037.94;;;25.28;nan
24620;BME280;12763;55.802;37.404;2022-07-10T20:54:12;99030.97;;;25.25;nan
24620;BME280;12763;55.802;37.404;2022-07-10T20:56:46;99029.84;;;25.35;nan
24620;BME280;12763;55.802;37.404;2022-07-10T21:03:30;99028.28;;;25.85;nan
24620;BME280;12763;55.802;37.404;2022-07-10T21:06:08;99016.34;;;25.97;nan
24620;BME280;12763;55.802;37.404;2022-07-10T21:08:40;98988.25;;;26.00;nan
24620;BME280;12763;55.802;37.404;2022-07-10T21:11:21;98986.41;;;26.13;nan
24620;BME280;12763;55.802;37.404;2022-07-10T21:18:06;98961.16;;;25.74;nan
24620;BME280;12763;55.802;37.404;2022-07-10T21:20:45;98971.78;;;25.59;nan
24620;BME280;12763;55.802;37.404;2022-07-10T21:23:33;98970.97;;;25.76;nan
24620;BME280;12763;55.802;37.404;2022-07-10T21:29:33;98967.97;;;26.07;nan
24620;BME280;12763;55.802;37.404;2022-07-10T21:32:05;98980.91;;;26.08;nan
24620;BME280;12763;55.802;37.404;2022-07-10T21:34:35;98968.78;;;26.07;nan
24620;BME280;12763;55.802;37.404;2022-07-10T21:37:07;98969.47;;;26.21;nan
24620;BME280;12763;55.802;37.404;2022-07-10T21:39:39;98967.66;;;26.17;nan
24620;BME280;12763;55.802;37.404;2022-07-10T21:42:05;98964.44;;;26.10;nan
24620;BME280;12763;55.802;37.404;2022-07-10T21:44:31;98977.94;;;25.96;nan
24620;BME280;12763;55.802;37.404;2022-07-10T21:47:04;98981.06;;;25.51;nan
24620;BME280;12763;55.802;37.404;2022-07-10T21:49:30;98979.22;;;25.47;nan
24620;BME280;12763;55.802;37.404;2022-07-10T21:51:56;98983.41;;;25.66;nan
24620;BME280;12763;55.802;37.404;2022-07-10T21:54:23;98984.25;;;25.76;nan
24620;BME280;12763;55.802;37.404;2022-07-10T21:56:49;98978.44;;;25.81;nan
24620;BME280;12763;55.802;37.404;2022-07-10T21:59:15;98983.25;;;26.06;nan
24620;BME280;12763;55.802;37.404;2022-07-10T22:01:51;98987.59;;;26.03;nan
24620;BME280;12763;55.802;37.404;2022-07-10T22:04:26;98989.91;;;25.84;nan
24620;BME280;12763;55.802;37.404;2022-07-10T22:07:25;98980.41;;;25.54;nan
24620;BME280;12763;55.802;37.404;2022-07-10T22:09:59;98974.19;;;25.44;nan
24620;BME280;12763;55.802;37.404;2022-07-10T22:12:31;98972.75;;;25.63;nan
24620;BME280;12763;55.802;37.404;2022-07-10T22:14:57;98966.97;;;25.94;nan
24620;BME280;12763;55.802;37.404;2022-07-10T22:17:57;98970.78;;;25.73;nan
24620;BME280;12763;55.802;37.404;2022-07-10T22:20:23;98962.97;;;25.61;nan
24620;BME280;12763;55.802;37.404;2022-07-10T22:22:49;98967.28;;;25.67;nan
24620;BME280;12763;55.802;37.404;2022-07-10T22:25:20;98979.75;;;25.83;nan
24620;BME280;12763;55.802;37.404;2022-07-10T22:27:52;98974.44;;;25.82;nan
24620;BME280;12763;55.802;37.404;2022-07-10T22:30:24;98974.66;;;25.20;nan
24620;BME280;12763;55.802;37.404;2022-07-10T22:33:21;98981.66;;;25.31;nan
24620;BME280;12763;55.802;37.404;2022-07-10T22:36:05;98990.63;;;25.33;nan
24620;BME280;12763;55.802;37.404;2022-07-10T22:38:34;98990.22;;;25.65;nan
24620;BME280;12763;55.802;37.404;2022-07-10T22:41:02;98987.75;;;25.98;nan
24620;BME280;12763;55.802;37.404;2022-07-10T22:43:28;98981.59;;;25.79;nan
24620;BME280;12763;55.802;37.404;2022-07-10T22:45:55;98972.59;;;25.94;nan
24620;BME280;12763;55.802;37.404;2022-07-10T22:48:27;98979.28;;;26.07;nan
24620;BME280;12763;55.802;37.404;2022-07-10T22:50:53;98975.94;;;25.96;nan
24620;BME280;12763;55.802;37.404;2022-07-10T22:53:28;98968.13;;;25.85;nan
24620;BME280;12763;55.802;37.404;2022-07-10T22:56:04;98973.94;;;26.05;nan
24620;BME280;12763;55.802;37.404;2022-07-10T22:58:48;98988.06;;;25.62;nan
24620;BME280;12763;55.802;37.404;2022-07-10T23:01:14;98986.72;;;25.68;nan
24620;BME280;12763;55.802;37.404;2022-07-10T23:03:49;98981.25;;;25.72;nan
24620;BME280;12763;55.802;37.404;2022-07-10T23:06:15;98966.97;;;25.94;nan
24620;BME280;12763;55.802;37.404;2022-07-10T23:08:48;98968.59;;;26.30;nan
24620;BME280;12763;55.802;37.404;2022-07-10T23:11:19;98977.41;;;26.11;nan
24620;BME280;12763;55.802;37.404;2022-07-10T23:13:54;98977.78;;;26.01;nan
24620;BME280;12763;55.802;37.404;2022-07-10T23:16:45;98983.09;;;25.77;nan
24620;BME280;12763;55.802;37.404;2022-07-10T23:19:17;98983.91;;;25.60;nan
24620;BME280;12763;55.802;37.404;2022-07-10T23:22:13;98985.84;;;25.42;nan
24620;BME280;12763;55.802;37.404;2022-07-10T23:24:54;98977.66;;;25.41;nan
24620;BME280;12763;55.802;37.404;2022-07-10T23:27:44;98995.97;;;25.43;nan
24620;BME280;12763;55.802;37.404;2022-07-10T23:30:10;98989.97;;;25.36;nan
24620;BME280;12763;55.802;37.404;2022-07-10T23:32:36;98998.72;;;25.65;nan
24620;BME280;12763;55.802;37.404;2022-07-10T23:35:05;98994.72;;;26.01;nan
24620;BME280;12763;55.802;37.404;2022-07-10T23:37:34;98998.22;;;25.89;nan
24620;BME280;12763;55.802;37.404;2022-07-10T23:40:03;98997.22;;;25.94;nan
24620;BME280;12763;55.802;37.404;2022-07-10T23:43:32;98996.84;;;25.61;nan
24620;BME280;12763;55.802;37.404;2022-07-10T23:45:58;98988.41;;;25.87;nan
24620;BME280;12763;55.802;37.404;2022-07-10T23:48:24;98994.53;;;25.80;nan
24620;BME280;12763;55.802;37.404;2022-07-10T23:51:08;99004.38;;;26.00;nan
24620;BME280;12763;55.802;37.404;2022-07-10T23:53:34;99006.06;;;26.18;nan
24620;BME280;12763;55.802;37.404;2022-07-10T23:56:01;99009.19;;;25.91;nan
24620;BME280;12763;55.802;37.404;2022-07-10T23:58:27;99016.31;;;25.80;nan
